LHPR/QGY METAR and TAF weather

Enter ICAO airport designator
Station Type Date Time Source
LHPR METAR 2018/12/10 08:45 UTC NOAA

LHPR 100845Z 29017KT 9999 FEW033 SCT200 07/01 Q1012 RMK BLU


Station Type Date Time Source
LHPR Decoded METAR 2018/12/10 08:45 UTC NOAA

Station name not available
Dec 10, 2018 - 03:45 AM EST / 2018.12.10 0845 UTC
Wind: from the WNW (290 degrees) at 20 MPH (17 KT):0
Visibility: greater than 7 mile(s):0
Sky conditions: partly cloudy
Temperature: 44 F (7 C)
Dew Point: 33 F (1 C)
Relative Humidity: 65%
Pressure (altimeter): 29.88 in. Hg (1012 hPa)
ob: LHPR 100845Z 29017KT 9999 FEW033 SCT200 07/01 Q1012 RMK BLU
cycle: 9

Station Type Date Time Source
LHPR TAF UTC NOAA

Error!


Example: see airport list